< < Back
Terminal Aerodrome Forecast


Current Version              Previous Versions:   1  2  3  4  5  6  7  8  9  

Terminal Aerodrome Forecast

105
FTUS42 KGSP 122333
TAFAND
TAF
KAND 122333Z 1300/1324 29006KT P6SM SCT070
     FM130300 28010KT P6SM FEW250
     FM131000 28006KT P6SM FEW200
     FM131400 32006KT P6SM SKC
     FM132000 28006KT P6SM SKC=



Latest METAR

055
SAUS70 KWBC 130200 RRD
MTRAND
METAR KAND 130156Z AUTO 29013G23KT 10SM CLR 07/M03 A3007 RMK AO2 PK WND
29028/0114 SLP185 T00721028


USA.gov is the U.S. government's official web portal to all federal, state and local government web resources and services.